Decoded Metar for KMCX ( in ) (IATA:) | Meteo·Mobile Aviation Weather
aviador You're here:

KMCX Decoded Metar

in
Report Time2019-01-17 23:15:00
UTC Time2019-01-17 23:26:44
Flight Rules lifr LIFR
Wind320° at 05 kt
W.Decomp.*RWY 36: 3.8 kt HW 3.2 kt LCW
W.Rank320° ranks 23
Current wind is below 320° avg. (8.0)
Visibility1207 m
Phenomena:Mist
Clouds:Overcast 003 Hf
Ceiling300 ft
Temp00°C
Dew Point00°C (100% RH)
AAT-3.8°C
QNH1016 hPa
Raw Report
KMCX 172315Z AUTO 32005KT 3/4SM BR OVC003 00/00 A2999 RMK AO2
T00011002=

Extra information for KMCX:More info

Social comments